createdAt,value
2019-04-10T00:00:35.063Z,99637.59
2019-04-10T00:03:02.160Z,99641.05
2019-04-10T00:05:29.096Z,99639.91
2019-04-10T00:07:56.052Z,99632.79
2019-04-10T00:10:23.601Z,99635.37
2019-04-10T00:12:50.656Z,99634.08
2019-04-10T00:15:18.483Z,99636.67
2019-04-10T00:17:45.785Z,99630.73
2019-04-10T00:20:12.653Z,99631.58
2019-04-10T00:22:39.895Z,99636.99
2019-04-10T00:25:06.852Z,99627.22
2019-04-10T00:27:34.677Z,99633.98
2019-04-10T00:30:02.925Z,99632.31
2019-04-10T00:32:30.033Z,99630.72
2019-04-10T00:34:58.181Z,99636.22
2019-04-10T00:37:28.514Z,99630.25
2019-04-10T00:39:54.963Z,99625.23
2019-04-10T00:42:22.908Z,99631.58
2019-04-10T00:44:50.369Z,99632.79
2019-04-10T00:47:17.281Z,99629.42
2019-04-10T00:49:44.578Z,99628.13
2019-04-10T00:52:12.116Z,99624.72
2019-04-10T00:54:39.299Z,99625.64
2019-04-10T00:57:07.304Z,99620.61
2019-04-10T00:59:34.714Z,99623.12
2019-04-10T01:02:02.524Z,99621.56
2019-04-10T01:04:30.630Z,99620.20
2019-04-10T01:06:57.896Z,99623.10
2019-04-10T01:09:25.615Z,99613.27
2019-04-10T01:11:52.644Z,99621.39
2019-04-10T01:14:19.874Z,99612.90
2019-04-10T01:16:47.389Z,99615.92
2019-04-10T01:19:15.443Z,99610.88
2019-04-10T01:21:42.581Z,99621.00
2019-04-10T01:24:09.462Z,99613.36
2019-04-10T01:26:37.093Z,99612.05
2019-04-10T01:29:05.107Z,99606.57
2019-04-10T01:31:33.401Z,99608.69
2019-04-10T01:34:01.070Z,99606.97
2019-04-10T01:36:29.019Z,99608.67
2019-04-10T01:38:56.080Z,99609.11
2019-04-10T01:41:23.818Z,99604.91
2019-04-10T01:43:51.311Z,99603.75
2019-04-10T01:46:18.256Z,99604.28
2019-04-10T01:48:45.158Z,99601.85
2019-04-10T01:51:12.031Z,99598.51
2019-04-10T01:53:39.193Z,99600.25
2019-04-10T01:56:20.384Z,99591.39
2019-04-10T01:58:35.045Z,99598.53
2019-04-10T02:01:02.273Z,99597.77
2019-04-10T02:03:29.879Z,99591.79
2019-04-10T02:05:57.989Z,99595.40
2019-04-10T02:08:25.784Z,99587.88
2019-04-10T02:10:53.433Z,99591.97
2019-04-10T02:13:21.393Z,99591.42
2019-04-10T02:15:48.659Z,99584.64
2019-04-10T02:18:15.521Z,99591.39
2019-04-10T02:20:43.154Z,99592.16
2019-04-10T02:23:10.153Z,99591.72
2019-04-10T02:25:37.009Z,99592.09
2019-04-10T02:28:04.883Z,99593.33
2019-04-10T02:30:32.621Z,99590.27
2019-04-10T02:33:02.293Z,99594.55
2019-04-10T02:35:29.731Z,99593.29
2019-04-10T02:38:00.595Z,99590.45
2019-04-10T02:40:25.851Z,99585.00
2019-04-10T02:42:52.724Z,99587.56
2019-04-10T02:45:19.708Z,99587.64
2019-04-10T02:47:47.435Z,99584.77
2019-04-10T02:50:16.455Z,99583.86
2019-04-10T02:52:45.744Z,99585.23
2019-04-10T02:55:14.330Z,99584.01
2019-04-10T02:57:41.593Z,99580.48
2019-04-10T03:00:10.417Z,99582.11
2019-04-10T03:02:38.634Z,99577.03
2019-04-10T03:05:07.159Z,99584.53
2019-04-10T03:07:35.783Z,99583.13
2019-04-10T03:10:15.208Z,99583.58
2019-04-10T03:12:32.327Z,99583.92
2019-04-10T03:15:01.000Z,99583.44
2019-04-10T03:17:28.369Z,99583.77
2019-04-10T03:19:56.090Z,99584.45
2019-04-10T03:22:23.151Z,99581.41
2019-04-10T03:24:50.674Z,99580.52
2019-04-10T03:27:19.179Z,99583.50
2019-04-10T03:29:46.428Z,99584.82
2019-04-10T03:32:14.674Z,99584.13
2019-04-10T03:34:43.868Z,99579.94
2019-04-10T03:37:11.782Z,99579.04
2019-04-10T03:39:38.716Z,99576.45
2019-04-10T03:42:06.503Z,99582.08
2019-04-10T03:44:34.617Z,99578.25
2019-04-10T03:47:02.830Z,99576.20
2019-04-10T03:49:29.882Z,99575.87
2019-04-10T03:51:56.855Z,99577.94
2019-04-10T03:54:23.943Z,99576.18
2019-04-10T03:56:51.224Z,99578.27
2019-04-10T03:59:18.468Z,99580.81
2019-04-10T04:01:45.361Z,99585.87
2019-04-10T04:04:13.338Z,99590.16
2019-04-10T04:06:40.361Z,99586.83
2019-04-10T04:09:11.239Z,99585.67
2019-04-10T04:11:36.165Z,99587.03
2019-04-10T04:14:04.034Z,99587.13
2019-04-10T04:16:31.110Z,99583.35
2019-04-10T04:18:58.052Z,99592.12
2019-04-10T04:21:25.847Z,99597.17
2019-04-10T04:23:53.254Z,99592.99
2019-04-10T04:26:21.252Z,99592.12
2019-04-10T04:28:49.360Z,99596.36
2019-04-10T04:31:16.410Z,99598.45
2019-04-10T04:33:44.770Z,99600.16
2019-04-10T04:36:12.315Z,99602.27
2019-04-10T04:38:39.637Z,99604.32
2019-04-10T04:41:06.864Z,99601.41
2019-04-10T04:43:33.920Z,99611.16
2019-04-10T04:46:01.243Z,99609.48
2019-04-10T04:48:28.411Z,99607.38
2019-04-10T04:50:56.495Z,99609.91
2019-04-10T04:53:23.702Z,99607.76
2019-04-10T04:55:51.427Z,99618.77
2019-04-10T04:58:18.518Z,99618.39
2019-04-10T05:00:45.944Z,99622.27
2019-04-10T05:03:13.084Z,99618.50
2019-04-10T05:05:39.945Z,99626.19
2019-04-10T05:08:07.424Z,99621.13
2019-04-10T05:10:35.749Z,99628.71
2019-04-10T05:13:02.684Z,99635.87
2019-04-10T05:15:29.632Z,99635.39
2019-04-10T05:17:57.625Z,99640.86
2019-04-10T05:20:29.083Z,99637.91
2019-04-10T05:22:54.803Z,99641.34
2019-04-10T05:25:22.127Z,99637.66
2019-04-10T05:27:49.083Z,99644.43
2019-04-10T05:30:16.433Z,99643.64
2019-04-10T05:32:44.503Z,99642.64
2019-04-10T05:35:11.602Z,99641.17
2019-04-10T05:37:39.986Z,99642.30
2019-04-10T05:40:07.681Z,99643.52
2019-04-10T05:42:35.263Z,99645.92
2019-04-10T05:45:03.132Z,99653.01
2019-04-10T05:47:30.337Z,99648.62
2019-04-10T05:49:57.718Z,99647.91
2019-04-10T05:52:24.913Z,99657.75
2019-04-10T05:54:51.909Z,99653.28
2019-04-10T05:57:18.828Z,99654.66
2019-04-10T05:59:46.045Z,99661.96
2019-04-10T06:02:13.855Z,99668.07
2019-04-10T06:04:41.232Z,99655.42
2019-04-10T06:07:08.622Z,99661.73
2019-04-10T06:09:36.586Z,99662.89
2019-04-10T06:12:04.142Z,99656.70
2019-04-10T06:14:32.473Z,99660.01
2019-04-10T06:17:02.386Z,99651.19
2019-04-10T06:19:28.797Z,99651.39
2019-04-10T06:21:56.591Z,99653.52
2019-04-10T06:24:24.514Z,99653.06
2019-04-10T06:26:52.022Z,99648.84
2019-04-10T06:29:19.235Z,99653.97
2019-04-10T06:31:47.371Z,99651.98
2019-04-10T06:34:16.151Z,99651.06
2019-04-10T06:36:43.795Z,99654.22
2019-04-10T06:39:12.850Z,99652.05
2019-04-10T06:41:41.045Z,99650.69
2019-04-10T06:44:08.112Z,99657.95
2019-04-10T06:46:37.614Z,99645.55
2019-04-10T06:49:05.556Z,99651.73
2019-04-10T06:51:35.508Z,99645.78
2019-04-10T06:54:07.031Z,99647.68
2019-04-10T06:56:31.304Z,99660.93
2019-04-10T06:58:58.683Z,99663.02
2019-04-10T07:01:38.409Z,99658.00
2019-04-10T07:04:02.081Z,99657.39
2019-04-10T07:06:36.601Z,99667.43
2019-04-10T07:08:53.378Z,99670.84
2019-04-10T07:11:22.166Z,99669.27
2019-04-10T07:13:49.106Z,99668.16
2019-04-10T07:16:16.167Z,99667.37
2019-04-10T07:18:45.861Z,99670.01
2019-04-10T07:21:12.706Z,99671.34
2019-04-10T07:23:40.734Z,99672.08
2019-04-10T07:26:08.089Z,99673.05
2019-04-10T07:28:36.637Z,99673.15
2019-04-10T07:31:08.108Z,99676.19
2019-04-10T07:33:32.932Z,99672.48
2019-04-10T07:36:04.308Z,99673.23
2019-04-10T07:38:28.850Z,99679.48
2019-04-10T07:40:56.823Z,99676.80
2019-04-10T07:43:27.168Z,99677.27
2019-04-10T07:45:56.684Z,99680.97
2019-04-10T07:48:21.068Z,99681.66
2019-04-10T07:50:48.921Z,99675.29
2019-04-10T07:53:16.882Z,99681.99
2019-04-10T07:55:56.660Z,99685.20
2019-04-10T07:58:13.213Z,99682.03
2019-04-10T08:00:40.746Z,99677.75
2019-04-10T08:03:09.325Z,99690.06
2019-04-10T08:05:37.410Z,99683.22
2019-04-10T08:08:05.161Z,99688.03
2019-04-10T08:10:32.733Z,99691.86
2019-04-10T08:13:00.342Z,99691.84
2019-04-10T08:15:27.656Z,99690.50
2019-04-10T08:17:56.056Z,99693.32
2019-04-10T08:20:24.017Z,99690.10
2019-04-10T08:22:51.372Z,99690.94
2019-04-10T08:25:19.526Z,99696.28
2019-04-10T08:27:47.055Z,99693.63
2019-04-10T08:30:15.114Z,99702.27
2019-04-10T08:32:53.511Z,99693.55
2019-04-10T08:35:11.229Z,99701.05
2019-04-10T08:37:39.093Z,99700.52
2019-04-10T08:40:07.363Z,99705.27
2019-04-10T08:42:35.198Z,99697.63
2019-04-10T08:45:03.011Z,99700.38
2019-04-10T08:47:31.328Z,99696.48
2019-04-10T08:49:58.726Z,99707.36
2019-04-10T08:52:25.617Z,99702.52
2019-04-10T08:54:53.222Z,99707.98
2019-04-10T08:57:21.393Z,99708.25
2019-04-10T08:59:48.982Z,99705.53
2019-04-10T09:02:16.038Z,99706.84
2019-04-10T09:04:43.373Z,99700.39
2019-04-10T09:07:11.629Z,99702.63
2019-04-10T09:09:39.459Z,99703.02
2019-04-10T09:12:07.282Z,99699.62
2019-04-10T09:14:35.052Z,99709.05
2019-04-10T09:17:02.848Z,99706.28
2019-04-10T09:19:30.021Z,99698.91
2019-04-10T09:21:57.585Z,99703.08
2019-04-10T09:24:25.767Z,99698.40
2019-04-10T09:26:52.905Z,99698.13
2019-04-10T09:29:21.935Z,99699.59
2019-04-10T09:31:48.464Z,99694.66
2019-04-10T09:34:15.843Z,99699.72
2019-04-10T09:36:43.734Z,99696.55
2019-04-10T09:39:11.603Z,99692.49
2019-04-10T09:41:38.653Z,99690.86
2019-04-10T09:44:06.609Z,99695.05
2019-04-10T09:46:33.508Z,99684.88
2019-04-10T09:49:00.687Z,99684.68
2019-04-10T09:51:27.945Z,99692.09
2019-04-10T09:53:55.310Z,99684.61
2019-04-10T09:56:22.404Z,99681.33
2019-04-10T09:58:49.381Z,99677.39
2019-04-10T10:01:17.780Z,99680.79
2019-04-10T10:03:44.967Z,99672.91
2019-04-10T10:06:23.220Z,99678.79
2019-04-10T10:08:41.632Z,99678.19
2019-04-10T10:11:09.559Z,99679.97
2019-04-10T10:13:37.373Z,99679.86
2019-04-10T10:16:04.854Z,99675.77
2019-04-10T10:18:31.756Z,99677.23
2019-04-10T10:20:59.768Z,99674.42
2019-04-10T10:23:27.623Z,99674.22
2019-04-10T10:25:55.402Z,99678.97
2019-04-10T10:28:22.867Z,99676.23
2019-04-10T10:30:50.209Z,99679.48
2019-04-10T10:33:17.469Z,99674.30
2019-04-10T10:35:44.458Z,99668.50
2019-04-10T10:38:11.401Z,99673.91
2019-04-10T10:40:39.339Z,99672.87
2019-04-10T10:43:07.769Z,99664.55
2019-04-10T10:45:34.876Z,99664.09
2019-04-10T10:48:01.902Z,99667.14
2019-04-10T10:50:29.049Z,99670.30
2019-04-10T10:52:56.317Z,99670.09
2019-04-10T10:55:23.569Z,99668.14
2019-04-10T10:57:51.229Z,99667.45
2019-04-10T11:00:19.416Z,99673.83
2019-04-10T11:02:46.867Z,99676.38
2019-04-10T11:05:13.849Z,99673.59
2019-04-10T11:07:41.065Z,99659.69
2019-04-10T11:10:08.481Z,99668.91
2019-04-10T11:12:35.818Z,99659.50
2019-04-10T11:15:03.802Z,99670.76
2019-04-10T11:17:31.615Z,99667.89
2019-04-10T11:19:59.482Z,99659.33
2019-04-10T11:22:26.589Z,99668.53
2019-04-10T11:24:53.511Z,99661.16
2019-04-10T11:27:20.463Z,99665.13
2019-04-10T11:29:47.599Z,99662.47
2019-04-10T11:32:14.657Z,99664.59
2019-04-10T11:34:42.649Z,99667.07
2019-04-10T11:37:23.383Z,99654.48
2019-04-10T11:39:43.277Z,99664.17
2019-04-10T11:42:09.491Z,99665.58
2019-04-10T11:44:36.771Z,99662.84
2019-04-10T11:47:06.451Z,99665.42
2019-04-10T11:49:33.995Z,99663.52
2019-04-10T11:52:03.390Z,99661.23
2019-04-10T11:54:32.247Z,99672.98
2019-04-10T11:57:02.675Z,99668.14
2019-04-10T11:59:28.951Z,99662.98
2019-04-10T12:02:00.712Z,99662.91
2019-04-10T12:04:29.049Z,99673.73
2019-04-10T12:06:57.258Z,99666.09
2019-04-10T12:10:16.924Z,99675.84
2019-04-10T12:11:53.026Z,99665.37
2019-04-10T12:14:20.015Z,99674.78
2019-04-10T12:16:47.431Z,99675.70
2019-04-10T12:19:15.217Z,99669.69
2019-04-10T12:21:42.248Z,99672.98
2019-04-10T12:24:09.539Z,99677.48
2019-04-10T12:26:36.556Z,99676.98
2019-04-10T12:29:04.405Z,99674.89
2019-04-10T12:31:33.010Z,99675.89
2019-04-10T12:34:01.363Z,99676.95
2019-04-10T12:36:28.867Z,99682.61
2019-04-10T12:38:56.209Z,99680.10
2019-04-10T12:41:23.545Z,99687.31
2019-04-10T12:43:51.471Z,99684.84
2019-04-10T12:46:19.134Z,99681.37
2019-04-10T12:48:47.210Z,99677.19
2019-04-10T12:51:14.250Z,99684.17
2019-04-10T12:53:41.711Z,99687.70
2019-04-10T12:56:08.564Z,99689.19
2019-04-10T12:58:37.062Z,99688.59
2019-04-10T13:01:04.530Z,99683.11
2019-04-10T13:03:31.521Z,99686.05
2019-04-10T13:05:58.474Z,99688.41
2019-04-10T13:08:35.192Z,99676.98
2019-04-10T13:10:54.078Z,99685.83
2019-04-10T13:13:22.039Z,99674.05
2019-04-10T13:15:54.182Z,99683.25
2019-04-10T13:18:21.073Z,99691.56
2019-04-10T13:20:48.376Z,99677.55
2019-04-10T13:23:17.460Z,99683.50
2019-04-10T13:25:55.350Z,99677.96
2019-04-10T13:28:12.980Z,99684.18
2019-04-10T13:30:48.052Z,99676.00
2019-04-10T13:33:10.388Z,99675.58
2019-04-10T13:35:37.888Z,99687.27
2019-04-10T13:38:05.159Z,99681.47
2019-04-10T13:40:32.631Z,99676.24
2019-04-10T13:42:59.600Z,99671.86
2019-04-10T13:45:27.132Z,99686.33
2019-04-10T13:47:54.650Z,99687.09
2019-04-10T13:50:22.199Z,99667.84
2019-04-10T13:52:51.061Z,99675.97
2019-04-10T13:55:19.017Z,99674.45
2019-04-10T13:57:46.650Z,99673.05
2019-04-10T14:00:13.644Z,99677.78
2019-04-10T14:02:41.554Z,99681.22
2019-04-10T14:05:08.841Z,99677.72
2019-04-10T14:07:36.215Z,99665.41
2019-04-10T14:10:03.457Z,99673.44
2019-04-10T14:12:31.211Z,99679.97
2019-04-10T14:14:59.244Z,99681.30
2019-04-10T14:17:26.232Z,99684.98
2019-04-10T14:19:54.136Z,99690.31
2019-04-10T14:22:21.850Z,99682.84
2019-04-10T14:24:50.558Z,99706.27
2019-04-10T14:27:18.284Z,99695.19
2019-04-10T14:29:45.197Z,99692.44
2019-04-10T14:32:13.290Z,99684.17
2019-04-10T14:34:40.809Z,99691.70
2019-04-10T14:37:07.847Z,99700.80
2019-04-10T14:39:35.849Z,99685.83
2019-04-10T14:42:02.895Z,99690.61
2019-04-10T14:44:30.638Z,99682.22
2019-04-10T14:46:58.032Z,99686.43
2019-04-10T14:49:27.153Z,99685.12
2019-04-10T14:51:54.723Z,99690.25
2019-04-10T14:54:23.766Z,99684.91
2019-04-10T14:56:50.756Z,99691.07
2019-04-10T14:59:17.830Z,99690.01
2019-04-10T15:01:44.822Z,99697.22
2019-04-10T15:04:12.969Z,99690.96
2019-04-10T15:06:40.333Z,99687.17
2019-04-10T15:09:17.955Z,99704.94
2019-04-10T15:11:36.229Z,99695.63
2019-04-10T15:14:03.721Z,99705.51
2019-04-10T15:16:31.532Z,99695.31
2019-04-10T15:18:58.557Z,99703.49
2019-04-10T15:21:25.495Z,99704.48
2019-04-10T15:23:53.189Z,99697.44
2019-04-10T15:26:20.273Z,99705.14
2019-04-10T15:28:47.726Z,99709.05
2019-04-10T15:31:15.146Z,99708.41
2019-04-10T15:33:42.167Z,99612.70
2019-04-10T15:36:09.462Z,99710.71
2019-04-10T15:38:38.002Z,99713.19
2019-04-10T15:41:06.417Z,99711.98
2019-04-10T15:43:33.781Z,99714.95
2019-04-10T15:46:02.327Z,99706.42
2019-04-10T15:48:29.512Z,99702.98
2019-04-10T15:50:58.525Z,99711.73
2019-04-10T15:53:26.398Z,99725.33
2019-04-10T15:55:53.757Z,99728.19
2019-04-10T15:58:21.531Z,99721.17
2019-04-10T16:00:50.235Z,99717.95
2019-04-10T16:03:19.537Z,99726.86
2019-04-10T16:05:50.075Z,99721.92
2019-04-10T16:08:20.462Z,99725.39
2019-04-10T16:10:49.665Z,99721.44
2019-04-10T16:13:19.830Z,99719.94
2019-04-10T16:15:47.858Z,99717.27
2019-04-10T16:18:15.854Z,99716.28
2019-04-10T16:20:43.284Z,99716.28
2019-04-10T16:23:12.231Z,99714.16
2019-04-10T16:25:40.389Z,99726.63
2019-04-10T16:28:08.303Z,99721.56
2019-04-10T16:30:35.427Z,99729.89
2019-04-10T16:33:02.908Z,99730.25
2019-04-10T16:35:32.493Z,99732.86
2019-04-10T16:37:58.589Z,99735.51
2019-04-10T16:40:26.857Z,99735.87
2019-04-10T16:42:55.090Z,99746.26
2019-04-10T16:45:22.489Z,99734.24
2019-04-10T16:47:50.339Z,99735.22
2019-04-10T16:50:17.559Z,99732.28
2019-04-10T16:52:45.652Z,99742.04
2019-04-10T16:55:12.629Z,99737.83
2019-04-10T16:57:39.842Z,99738.69
2019-04-10T17:00:07.417Z,99746.30
2019-04-10T17:02:36.026Z,99741.23
2019-04-10T17:05:03.908Z,99745.56
2019-04-10T17:07:31.241Z,99744.08
2019-04-10T17:10:12.785Z,99751.72
2019-04-10T17:12:27.517Z,99754.78
2019-04-10T17:14:55.426Z,99752.38
2019-04-10T17:17:22.465Z,99754.05
2019-04-10T17:19:55.388Z,99760.05
2019-04-10T17:22:30.854Z,99759.59
2019-04-10T17:24:49.448Z,99759.88
2019-04-10T17:27:16.412Z,99768.57
2019-04-10T17:29:45.258Z,99764.93
2019-04-10T17:32:17.593Z,99767.11
2019-04-10T17:34:42.996Z,99772.59
2019-04-10T17:37:10.066Z,99775.59
2019-04-10T17:39:39.608Z,99779.93
2019-04-10T17:42:08.471Z,99782.05
2019-04-10T17:44:38.027Z,99783.77
2019-04-10T17:47:07.126Z,99786.14
2019-04-10T17:49:33.880Z,99795.64
2019-04-10T17:52:03.297Z,99795.19
2019-04-10T17:54:31.261Z,99795.27
2019-04-10T17:57:02.489Z,99804.33
2019-04-10T17:59:30.209Z,99812.88
2019-04-10T18:01:58.960Z,99818.08
2019-04-10T18:04:26.491Z,99819.44
2019-04-10T18:06:53.442Z,99822.72
2019-04-10T18:09:21.380Z,99817.20
2019-04-10T18:11:48.511Z,99822.44
2019-04-10T18:14:15.515Z,99829.22
2019-04-10T18:16:42.400Z,99835.53
2019-04-10T18:19:10.859Z,99835.55
2019-04-10T18:21:39.128Z,99839.86
2019-04-10T18:24:06.480Z,99850.84
2019-04-10T18:26:34.027Z,99847.37
2019-04-10T18:29:02.330Z,99857.90
2019-04-10T18:31:29.685Z,99861.34
2019-04-10T18:33:56.648Z,99863.53
2019-04-10T18:36:24.351Z,99867.75
2019-04-10T18:38:52.598Z,99869.89
2019-04-10T18:41:20.006Z,99873.66
2019-04-10T18:43:46.904Z,99872.95
2019-04-10T18:46:17.985Z,99874.73
2019-04-10T18:48:45.635Z,99879.01
2019-04-10T18:51:12.604Z,99890.84
2019-04-10T18:53:39.552Z,99889.28
2019-04-10T18:56:07.039Z,99894.45
2019-04-10T18:58:34.163Z,99901.75
2019-04-10T19:01:01.150Z,99898.89
2019-04-10T19:03:29.714Z,99903.57
2019-04-10T19:05:58.330Z,99907.75
2019-04-10T19:08:26.031Z,99912.45
2019-04-10T19:11:08.406Z,99914.98
2019-04-10T19:13:22.478Z,99911.74
2019-04-10T19:15:50.563Z,99924.97
2019-04-10T19:18:17.809Z,99926.27
2019-04-10T19:20:45.042Z,99935.69
2019-04-10T19:23:14.980Z,99936.19
2019-04-10T19:25:45.572Z,99937.59
2019-04-10T19:28:12.961Z,99941.05
2019-04-10T19:30:39.939Z,99944.51
2019-04-10T19:33:08.389Z,99940.77
2019-04-10T19:35:35.776Z,99947.05
2019-04-10T19:38:03.128Z,99945.21
2019-04-10T19:40:31.896Z,99947.61
2019-04-10T19:42:59.959Z,99946.69
2019-04-10T19:45:27.963Z,99945.78
2019-04-10T19:47:54.997Z,99950.01
2019-04-10T19:50:21.880Z,99948.39
2019-04-10T19:52:49.096Z,99951.81
2019-04-10T19:55:16.073Z,99951.00
2019-04-10T19:57:43.639Z,99945.94
2019-04-10T20:00:11.091Z,99950.22
2019-04-10T20:02:40.058Z,99952.33
2019-04-10T20:05:07.423Z,99956.17
2019-04-10T20:07:35.268Z,99960.85
2019-04-10T20:10:03.723Z,99958.78
2019-04-10T20:12:32.990Z,99962.22
2019-04-10T20:15:02.452Z,99964.45
2019-04-10T20:17:30.268Z,99965.73
2019-04-10T20:19:58.809Z,99965.70
2019-04-10T20:22:27.961Z,99980.04
2019-04-10T20:24:54.774Z,99977.16
2019-04-10T20:27:23.681Z,99980.95
2019-04-10T20:29:51.110Z,99989.06
2019-04-10T20:32:18.294Z,99992.11
2019-04-10T20:34:45.449Z,99989.27
2019-04-10T20:37:13.040Z,99993.17
2019-04-10T20:39:41.266Z,99996.69
2019-04-10T20:42:09.809Z,100000.13
2019-04-10T20:44:36.948Z,100006.50
2019-04-10T20:47:04.222Z,100002.73
2019-04-10T20:49:31.464Z,100012.45
2019-04-10T20:51:58.358Z,100004.43
2019-04-10T20:54:25.883Z,100013.73
2019-04-10T20:56:53.124Z,100019.69
2019-04-10T20:59:20.440Z,100020.95
2019-04-10T21:01:47.740Z,100024.31
2019-04-10T21:04:15.101Z,100021.36
2019-04-10T21:06:43.595Z,100022.60
2019-04-10T21:09:11.718Z,100026.44
2019-04-10T21:11:39.913Z,100023.52
2019-04-10T21:14:07.265Z,100031.16
2019-04-10T21:16:34.253Z,100032.41
2019-04-10T21:19:02.374Z,100034.06
2019-04-10T21:21:30.720Z,100035.29
2019-04-10T21:23:57.858Z,100031.54
2019-04-10T21:26:25.181Z,100037.47
2019-04-10T21:28:52.119Z,100029.48
2019-04-10T21:31:19.002Z,100035.02
2019-04-10T21:33:46.948Z,100043.07
2019-04-10T21:36:14.408Z,100046.00
2019-04-10T21:38:41.359Z,100039.22
2019-04-10T21:41:10.802Z,100043.02
2019-04-10T21:43:37.202Z,100044.32
2019-04-10T21:46:04.065Z,100043.50
2019-04-10T21:48:31.051Z,100047.75
2019-04-10T21:50:58.236Z,100049.02
2019-04-10T21:53:25.469Z,100046.89
2019-04-10T21:55:53.576Z,100048.97
2019-04-10T21:58:20.608Z,100050.67
2019-04-10T22:00:49.037Z,100055.75
2019-04-10T22:03:16.899Z,100050.23
2019-04-10T22:05:44.543Z,100051.50
2019-04-10T22:08:12.573Z,100053.63
2019-04-10T22:10:39.909Z,100048.14
2019-04-10T22:13:07.802Z,100048.56
2019-04-10T22:15:35.167Z,100054.91
2019-04-10T22:18:03.741Z,100054.48
2019-04-10T22:20:31.759Z,100057.04
2019-04-10T22:22:59.804Z,100062.10
2019-04-10T22:25:27.714Z,100057.89
2019-04-10T22:27:54.720Z,100051.98
2019-04-10T22:30:21.720Z,100056.18
2019-04-10T22:32:49.287Z,100057.89
2019-04-10T22:35:17.512Z,100054.50
2019-04-10T22:37:44.461Z,100062.10
2019-04-10T22:40:11.681Z,100063.78
2019-04-10T22:42:43.030Z,100071.81
2019-04-10T22:45:07.220Z,100075.19
2019-04-10T22:47:34.170Z,100075.59
2019-04-10T22:50:01.131Z,100071.81
2019-04-10T22:52:28.390Z,100075.16
2019-04-10T22:54:55.371Z,100075.19
2019-04-10T22:57:23.090Z,100075.59
2019-04-10T22:59:51.177Z,100089.09
2019-04-10T23:02:19.315Z,100084.44
2019-04-10T23:04:47.116Z,100085.28
2019-04-10T23:07:14.536Z,100092.91
2019-04-10T23:09:41.526Z,100087.84
2019-04-10T23:12:08.461Z,100089.11
2019-04-10T23:14:36.600Z,100086.56
2019-04-10T23:17:04.253Z,100086.97
2019-04-10T23:19:31.284Z,100088.65
2019-04-10T23:21:58.213Z,100091.63
2019-04-10T23:24:25.194Z,100095.42
2019-04-10T23:26:53.311Z,100095.42
2019-04-10T23:29:20.333Z,100095.42
2019-04-10T23:31:48.002Z,100091.63
2019-04-10T23:34:15.061Z,100100.05
2019-04-10T23:36:42.410Z,100099.62
2019-04-10T23:39:10.088Z,100102.16
2019-04-10T23:41:37.901Z,100102.58
2019-04-10T23:44:05.067Z,100102.58
2019-04-10T23:46:32.574Z,100101.72
2019-04-10T23:48:59.605Z,100099.59
2019-04-10T23:51:27.330Z,100105.52
2019-04-10T23:53:55.099Z,100103.84
2019-04-10T23:56:22.152Z,100100.05
2019-04-10T23:58:50.760Z,100103.84
